sensor_id;sensor_type;location;lat;lon;timestamp;P1;durP1;ratioP1;P2;durP2;ratioP2
22937;SDS011;11634;42.734;23.298;2023-04-25T00:01:17;4.00;;;3.00;;
22937;SDS011;11634;42.734;23.298;2023-04-25T00:03:44;4.03;;;3.10;;
22937;SDS011;11634;42.734;23.298;2023-04-25T00:06:10;5.15;;;3.53;;
22937;SDS011;11634;42.734;23.298;2023-04-25T00:08:36;6.00;;;3.70;;
22937;SDS011;11634;42.734;23.298;2023-04-25T00:11:01;3.53;;;3.22;;
22937;SDS011;11634;42.734;23.298;2023-04-25T00:13:27;4.32;;;3.08;;
22937;SDS011;11634;42.734;23.298;2023-04-25T00:15:53;4.30;;;3.90;;
22937;SDS011;11634;42.734;23.298;2023-04-25T00:18:19;5.15;;;3.85;;
22937;SDS011;11634;42.734;23.298;2023-04-25T00:20:45;6.47;;;3.90;;
22937;SDS011;11634;42.734;23.298;2023-04-25T00:23:15;5.22;;;4.28;;
22937;SDS011;11634;42.734;23.298;2023-04-25T00:25:52;4.90;;;4.35;;
22937;SDS011;11634;42.734;23.298;2023-04-25T00:28:17;4.32;;;3.92;;
22937;SDS011;11634;42.734;23.298;2023-04-25T00:30:43;4.85;;;4.43;;
22937;SDS011;11634;42.734;23.298;2023-04-25T00:33:09;5.32;;;4.60;;
22937;SDS011;11634;42.734;23.298;2023-04-25T00:35:35;6.50;;;4.80;;
22937;SDS011;11634;42.734;23.298;2023-04-25T00:38:01;6.18;;;5.35;;
22937;SDS011;11634;42.734;23.298;2023-04-25T00:40:27;5.82;;;5.32;;
22937;SDS011;11634;42.734;23.298;2023-04-25T00:42:53;5.53;;;5.03;;
22937;SDS011;11634;42.734;23.298;2023-04-25T00:45:19;6.93;;;4.90;;
22937;SDS011;11634;42.734;23.298;2023-04-25T00:47:45;6.20;;;5.60;;
22937;SDS011;11634;42.734;23.298;2023-04-25T00:50:13;5.90;;;5.30;;
22937;SDS011;11634;42.734;23.298;2023-04-25T00:52:41;6.38;;;5.78;;
22937;SDS011;11634;42.734;23.298;2023-04-25T00:55:09;5.90;;;5.38;;
22937;SDS011;11634;42.734;23.298;2023-04-25T00:57:36;6.00;;;5.45;;
22937;SDS011;11634;42.734;23.298;2023-04-25T01:00:03;6.43;;;5.82;;
22937;SDS011;11634;42.734;23.298;2023-04-25T01:02:31;7.00;;;6.28;;
22937;SDS011;11634;42.734;23.298;2023-04-25T01:04:57;7.97;;;6.80;;
22937;SDS011;11634;42.734;23.298;2023-04-25T01:07:23;7.40;;;6.30;;
22937;SDS011;11634;42.734;23.298;2023-04-25T01:09:51;7.90;;;7.10;;
22937;SDS011;11634;42.734;23.298;2023-04-25T01:12:17;7.40;;;6.68;;
22937;SDS011;11634;42.734;23.298;2023-04-25T01:14:43;8.40;;;6.60;;
22937;SDS011;11634;42.734;23.298;2023-04-25T01:17:09;8.40;;;7.05;;
22937;SDS011;11634;42.734;23.298;2023-04-25T01:19:35;7.90;;;7.10;;
22937;SDS011;11634;42.734;23.298;2023-04-25T01:22:01;7.78;;;7.05;;
22937;SDS011;11634;42.734;23.298;2023-04-25T01:24:28;7.85;;;6.55;;
22937;SDS011;11634;42.734;23.298;2023-04-25T01:26:57;8.38;;;7.57;;
22937;SDS011;11634;42.734;23.298;2023-04-25T01:29:26;8.77;;;7.65;;
22937;SDS011;11634;42.734;23.298;2023-04-25T01:31:53;8.93;;;8.02;;
22937;SDS011;11634;42.734;23.298;2023-04-25T01:34:19;9.23;;;8.32;;
22937;SDS011;11634;42.734;23.298;2023-04-25T01:36:45;12.30;;;8.63;;
22937;SDS011;11634;42.734;23.298;2023-04-25T01:39:14;9.00;;;8.10;;
22937;SDS011;11634;42.734;23.298;2023-04-25T01:41:40;10.18;;;8.77;;
22937;SDS011;11634;42.734;23.298;2023-04-25T01:44:06;10.95;;;9.25;;
22937;SDS011;11634;42.734;23.298;2023-04-25T01:46:32;12.77;;;8.85;;
22937;SDS011;11634;42.734;23.298;2023-04-25T01:48:59;11.05;;;8.75;;
22937;SDS011;11634;42.734;23.298;2023-04-25T01:51:25;8.98;;;8.07;;
22937;SDS011;11634;42.734;23.298;2023-04-25T01:53:51;13.82;;;8.85;;
22937;SDS011;11634;42.734;23.298;2023-04-25T01:56:36;10.35;;;7.70;;
22937;SDS011;11634;42.734;23.298;2023-04-25T01:59:05;9.73;;;8.48;;
22937;SDS011;11634;42.734;23.298;2023-04-25T02:01:54;9.80;;;8.80;;
22937;SDS011;11634;42.734;23.298;2023-04-25T02:04:25;10.85;;;9.18;;
22937;SDS011;11634;42.734;23.298;2023-04-25T02:06:51;10.05;;;8.82;;
22937;SDS011;11634;42.734;23.298;2023-04-25T02:09:17;10.48;;;9.38;;
22937;SDS011;11634;42.734;23.298;2023-04-25T02:11:48;11.18;;;9.20;;
22937;SDS011;11634;42.734;23.298;2023-04-25T02:14:26;12.05;;;10.48;;
22937;SDS011;11634;42.734;23.298;2023-04-25T02:17:21;14.32;;;11.32;;
22937;SDS011;11634;42.734;23.298;2023-04-25T02:19:47;14.32;;;11.93;;
22937;SDS011;11634;42.734;23.298;2023-04-25T02:22:12;13.65;;;11.60;;
22937;SDS011;11634;42.734;23.298;2023-04-25T02:24:38;13.77;;;11.20;;
22937;SDS011;11634;42.734;23.298;2023-04-25T02:27:04;13.45;;;11.25;;
22937;SDS011;11634;42.734;23.298;2023-04-25T02:29:30;13.68;;;11.82;;
22937;SDS011;11634;42.734;23.298;2023-04-25T02:31:56;14.55;;;12.30;;
22937;SDS011;11634;42.734;23.298;2023-04-25T02:34:22;15.02;;;11.20;;
22937;SDS011;11634;42.734;23.298;2023-04-25T02:36:48;15.25;;;12.43;;
22937;SDS011;11634;42.734;23.298;2023-04-25T02:39:17;14.73;;;12.10;;
22937;SDS011;11634;42.734;23.298;2023-04-25T02:41:42;16.55;;;11.98;;
22937;SDS011;11634;42.734;23.298;2023-04-25T02:44:08;14.52;;;12.27;;
22937;SDS011;11634;42.734;23.298;2023-04-25T02:46:34;14.75;;;11.65;;
22937;SDS011;11634;42.734;23.298;2023-04-25T02:48:59;15.45;;;12.52;;
22937;SDS011;11634;42.734;23.298;2023-04-25T02:51:26;14.05;;;11.57;;
22937;SDS011;11634;42.734;23.298;2023-04-25T02:53:52;16.90;;;10.93;;
22937;SDS011;11634;42.734;23.298;2023-04-25T02:56:17;15.75;;;11.75;;
22937;SDS011;11634;42.734;23.298;2023-04-25T02:58:43;13.77;;;11.88;;
22937;SDS011;11634;42.734;23.298;2023-04-25T03:01:12;16.42;;;12.15;;
22937;SDS011;11634;42.734;23.298;2023-04-25T03:03:37;16.05;;;12.60;;
22937;SDS011;11634;42.734;23.298;2023-04-25T03:06:03;14.07;;;11.43;;
22937;SDS011;11634;42.734;23.298;2023-04-25T03:08:31;12.90;;;11.13;;
22937;SDS011;11634;42.734;23.298;2023-04-25T03:10:59;12.25;;;10.15;;
22937;SDS011;11634;42.734;23.298;2023-04-25T03:13:25;11.02;;;9.60;;
22937;SDS011;11634;42.734;23.298;2023-04-25T03:15:51;11.80;;;10.07;;
22937;SDS011;11634;42.734;23.298;2023-04-25T03:18:17;8.85;;;7.95;;
22937;SDS011;11634;42.734;23.298;2023-04-25T03:20:43;12.93;;;11.05;;
22937;SDS011;11634;42.734;23.298;2023-04-25T03:23:09;14.27;;;10.68;;
22937;SDS011;11634;42.734;23.298;2023-04-25T03:25:35;12.93;;;10.38;;
22937;SDS011;11634;42.734;23.298;2023-04-25T03:28:03;13.35;;;11.00;;
22937;SDS011;11634;42.734;23.298;2023-04-25T03:30:30;14.43;;;12.10;;
22937;SDS011;11634;42.734;23.298;2023-04-25T03:32:56;17.08;;;13.10;;
22937;SDS011;11634;42.734;23.298;2023-04-25T03:35:22;23.00;;;14.07;;
22937;SDS011;11634;42.734;23.298;2023-04-25T03:37:49;16.02;;;13.27;;
22937;SDS011;11634;42.734;23.298;2023-04-25T03:40:20;19.92;;;14.77;;
22937;SDS011;11634;42.734;23.298;2023-04-25T03:43:05;14.85;;;12.80;;
22937;SDS011;11634;42.734;23.298;2023-04-25T03:45:32;17.10;;;13.93;;
22937;SDS011;11634;42.734;23.298;2023-04-25T03:47:57;18.15;;;13.20;;
22937;SDS011;11634;42.734;23.298;2023-04-25T03:50:23;13.15;;;10.80;;
22937;SDS011;11634;42.734;23.298;2023-04-25T03:52:49;13.40;;;12.00;;
22937;SDS011;11634;42.734;23.298;2023-04-25T03:55:18;16.13;;;14.00;;
22937;SDS011;11634;42.734;23.298;2023-04-25T03:57:44;18.27;;;12.48;;
22937;SDS011;11634;42.734;23.298;2023-04-25T04:00:10;14.13;;;11.95;;
22937;SDS011;11634;42.734;23.298;2023-04-25T04:02:41;13.45;;;11.25;;
22937;SDS011;11634;42.734;23.298;2023-04-25T04:05:09;11.25;;;10.10;;
22937;SDS011;11634;42.734;23.298;2023-04-25T04:07:39;14.18;;;11.48;;
22937;SDS011;11634;42.734;23.298;2023-04-25T04:10:11;12.70;;;11.07;;
22937;SDS011;11634;42.734;23.298;2023-04-25T04:12:39;12.13;;;10.88;;
22937;SDS011;11634;42.734;23.298;2023-04-25T04:15:05;15.18;;;11.98;;
22937;SDS011;11634;42.734;23.298;2023-04-25T04:17:33;12.70;;;11.40;;
22937;SDS011;11634;42.734;23.298;2023-04-25T04:19:59;14.43;;;11.27;;
22937;SDS011;11634;42.734;23.298;2023-04-25T04:22:27;13.60;;;10.70;;
22937;SDS011;11634;42.734;23.298;2023-04-25T04:25:00;13.23;;;11.57;;
22937;SDS011;11634;42.734;23.298;2023-04-25T04:27:44;13.88;;;12.20;;
22937;SDS011;11634;42.734;23.298;2023-04-25T04:30:35;13.23;;;10.98;;
22937;SDS011;11634;42.734;23.298;2023-04-25T04:33:05;13.25;;;10.50;;
22937;SDS011;11634;42.734;23.298;2023-04-25T04:35:33;12.63;;;11.18;;
22937;SDS011;11634;42.734;23.298;2023-04-25T04:37:59;11.07;;;9.90;;
22937;SDS011;11634;42.734;23.298;2023-04-25T04:40:28;11.63;;;10.40;;
22937;SDS011;11634;42.734;23.298;2023-04-25T04:43:25;11.63;;;9.32;;
22937;SDS011;11634;42.734;23.298;2023-04-25T04:46:17;10.70;;;9.23;;
22937;SDS011;11634;42.734;23.298;2023-04-25T04:49:09;10.07;;;8.40;;
22937;SDS011;11634;42.734;23.298;2023-04-25T04:52:08;12.07;;;8.60;;
22937;SDS011;11634;42.734;23.298;2023-04-25T04:54:44;9.63;;;8.50;;
22937;SDS011;11634;42.734;23.298;2023-04-25T04:57:36;10.10;;;9.10;;
22937;SDS011;11634;42.734;23.298;2023-04-25T05:00:22;9.25;;;8.35;;
22937;SDS011;11634;42.734;23.298;2023-04-25T05:03:10;8.60;;;7.70;;
22937;SDS011;11634;42.734;23.298;2023-04-25T05:05:44;10.77;;;9.50;;
22937;SDS011;11634;42.734;23.298;2023-04-25T05:08:40;10.82;;;9.70;;
22937;SDS011;11634;42.734;23.298;2023-04-25T05:11:25;11.43;;;10.30;;
22937;SDS011;11634;42.734;23.298;2023-04-25T05:14:23;12.13;;;10.35;;
22937;SDS011;11634;42.734;23.298;2023-04-25T05:17:08;11.73;;;10.45;;
22937;SDS011;11634;42.734;23.298;2023-04-25T05:20:00;12.32;;;11.00;;
22937;SDS011;11634;42.734;23.298;2023-04-25T05:22:44;13.85;;;11.05;;
22937;SDS011;11634;42.734;23.298;2023-04-25T05:25:31;13.32;;;11.48;;
22937;SDS011;11634;42.734;23.298;2023-04-25T05:28:17;13.45;;;12.00;;
22937;SDS011;11634;42.734;23.298;2023-04-25T05:31:18;14.30;;;10.73;;
22937;SDS011;11634;42.734;23.298;2023-04-25T05:33:59;11.65;;;8.70;;
22937;SDS011;11634;42.734;23.298;2023-04-25T05:36:35;9.35;;;7.47;;
22937;SDS011;11634;42.734;23.298;2023-04-25T05:39:00;6.50;;;5.43;;
22937;SDS011;11634;42.734;23.298;2023-04-25T05:41:46;7.43;;;6.35;;
22937;SDS011;11634;42.734;23.298;2023-04-25T05:44:32;7.95;;;6.85;;
22937;SDS011;11634;42.734;23.298;2023-04-25T05:47:12;6.50;;;5.90;;
22937;SDS011;11634;42.734;23.298;2023-04-25T05:49:54;7.95;;;6.25;;
22937;SDS011;11634;42.734;23.298;2023-04-25T05:52:52;7.60;;;5.75;;
22937;SDS011;11634;42.734;23.298;2023-04-25T05:55:36;6.00;;;5.40;;
22937;SDS011;11634;42.734;23.298;2023-04-25T05:58:17;8.32;;;7.13;;
22937;SDS011;11634;42.734;23.298;2023-04-25T06:00:42;8.25;;;7.45;;
22937;SDS011;11634;42.734;23.298;2023-04-25T06:03:08;12.13;;;7.80;;
22937;SDS011;11634;42.734;23.298;2023-04-25T06:05:41;8.45;;;7.55;;
22937;SDS011;11634;42.734;23.298;2023-04-25T06:08:07;9.40;;;7.85;;
22937;SDS011;11634;42.734;23.298;2023-04-25T06:10:33;10.73;;;7.13;;
22937;SDS011;11634;42.734;23.298;2023-04-25T06:12:58;8.73;;;7.63;;
22937;SDS011;11634;42.734;23.298;2023-04-25T06:15:25;8.98;;;8.07;;
22937;SDS011;11634;42.734;23.298;2023-04-25T06:17:50;8.38;;;7.43;;
22937;SDS011;11634;42.734;23.298;2023-04-25T06:20:16;8.63;;;7.55;;
22937;SDS011;11634;42.734;23.298;2023-04-25T06:22:42;10.95;;;8.15;;
22937;SDS011;11634;42.734;23.298;2023-04-25T06:25:08;9.55;;;8.35;;
22937;SDS011;11634;42.734;23.298;2023-04-25T06:27:37;10.88;;;8.88;;
22937;SDS011;11634;42.734;23.298;2023-04-25T06:30:03;10.07;;;8.35;;
22937;SDS011;11634;42.734;23.298;2023-04-25T06:32:31;10.68;;;9.57;;
22937;SDS011;11634;42.734;23.298;2023-04-25T06:34:59;12.15;;;10.05;;
22937;SDS011;11634;42.734;23.298;2023-04-25T06:37:25;14.25;;;12.38;;
22937;SDS011;11634;42.734;23.298;2023-04-25T06:39:51;15.70;;;12.00;;
22937;SDS011;11634;42.734;23.298;2023-04-25T06:42:16;14.80;;;10.95;;
22937;SDS011;11634;42.734;23.298;2023-04-25T06:44:56;12.43;;;10.15;;
22937;SDS011;11634;42.734;23.298;2023-04-25T06:47:22;13.60;;;11.55;;
22937;SDS011;11634;42.734;23.298;2023-04-25T06:49:49;14.05;;;10.32;;
22937;SDS011;11634;42.734;23.298;2023-04-25T06:52:15;12.43;;;10.73;;
22937;SDS011;11634;42.734;23.298;2023-04-25T06:54:45;10.65;;;9.25;;
22937;SDS011;11634;42.734;23.298;2023-04-25T06:57:37;12.50;;;10.05;;
22937;SDS011;11634;42.734;23.298;2023-04-25T07:00:28;13.35;;;12.05;;
22937;SDS011;11634;42.734;23.298;2023-04-25T07:02:55;20.05;;;11.68;;
22937;SDS011;11634;42.734;23.298;2023-04-25T07:05:21;13.43;;;12.02;;
22937;SDS011;11634;42.734;23.298;2023-04-25T07:07:49;18.23;;;12.13;;
22937;SDS011;11634;42.734;23.298;2023-04-25T07:10:18;15.20;;;12.15;;
22937;SDS011;11634;42.734;23.298;2023-04-25T07:12:44;15.70;;;11.15;;
22937;SDS011;11634;42.734;23.298;2023-04-25T07:15:09;14.68;;;11.23;;
22937;SDS011;11634;42.734;23.298;2023-04-25T07:17:41;14.40;;;11.90;;
22937;SDS011;11634;42.734;23.298;2023-04-25T07:20:07;15.25;;;11.70;;
22937;SDS011;11634;42.734;23.298;2023-04-25T07:22:34;13.77;;;12.02;;
22937;SDS011;11634;42.734;23.298;2023-04-25T07:25:02;14.45;;;11.25;;
22937;SDS011;11634;42.734;23.298;2023-04-25T07:27:30;12.05;;;10.68;;
22937;SDS011;11634;42.734;23.298;2023-04-25T07:30:02;12.13;;;10.82;;
22937;SDS011;11634;42.734;23.298;2023-04-25T07:32:29;11.35;;;10.07;;
22937;SDS011;11634;42.734;23.298;2023-04-25T07:34:55;12.13;;;10.13;;
22937;SDS011;11634;42.734;23.298;2023-04-25T07:37:21;18.52;;;11.00;;
22937;SDS011;11634;42.734;23.298;2023-04-25T07:39:59;16.83;;;10.00;;
22937;SDS011;11634;42.734;23.298;2023-04-25T07:42:25;12.50;;;10.43;;
22937;SDS011;11634;42.734;23.298;2023-04-25T07:44:50;12.02;;;10.40;;
22937;SDS011;11634;42.734;23.298;2023-04-25T07:47:19;11.60;;;10.02;;
22937;SDS011;11634;42.734;23.298;2023-04-25T07:49:45;13.82;;;9.77;;
22937;SDS011;11634;42.734;23.298;2023-04-25T07:52:11;12.82;;;9.90;;
22937;SDS011;11634;42.734;23.298;2023-04-25T07:54:40;15.70;;;11.27;;
22937;SDS011;11634;42.734;23.298;2023-04-25T07:57:14;11.63;;;9.80;;
22937;SDS011;11634;42.734;23.298;2023-04-25T07:59:39;13.27;;;10.07;;
22937;SDS011;11634;42.734;23.298;2023-04-25T08:02:06;13.18;;;10.18;;
22937;SDS011;11634;42.734;23.298;2023-04-25T08:04:35;10.68;;;9.63;;
22937;SDS011;11634;42.734;23.298;2023-04-25T08:07:03;12.55;;;9.88;;
22937;SDS011;11634;42.734;23.298;2023-04-25T08:09:35;14.75;;;9.10;;
22937;SDS011;11634;42.734;23.298;2023-04-25T08:12:05;13.07;;;9.63;;
22937;SDS011;11634;42.734;23.298;2023-04-25T08:14:32;15.60;;;9.45;;
22937;SDS011;11634;42.734;23.298;2023-04-25T08:17:03;10.02;;;8.30;;
22937;SDS011;11634;42.734;23.298;2023-04-25T08:19:31;10.20;;;8.38;;
22937;SDS011;11634;42.734;23.298;2023-04-25T08:21:57;10.73;;;8.65;;
22937;SDS011;11634;42.734;23.298;2023-04-25T08:24:30;13.10;;;8.60;;
22937;SDS011;11634;42.734;23.298;2023-04-25T08:26:57;10.15;;;8.43;;
22937;SDS011;11634;42.734;23.298;2023-04-25T08:29:26;10.82;;;7.50;;
22937;SDS011;11634;42.734;23.298;2023-04-25T08:31:53;8.32;;;7.53;;
22937;SDS011;11634;42.734;23.298;2023-04-25T08:34:19;11.70;;;8.57;;
22937;SDS011;11634;42.734;23.298;2023-04-25T08:36:50;10.00;;;9.00;;
22937;SDS011;11634;42.734;23.298;2023-04-25T08:39:26;9.75;;;8.43;;
22937;SDS011;11634;42.734;23.298;2023-04-25T08:42:17;10.95;;;9.73;;
22937;SDS011;11634;42.734;23.298;2023-04-25T08:44:45;13.13;;;10.38;;
22937;SDS011;11634;42.734;23.298;2023-04-25T08:47:11;11.40;;;10.20;;
22937;SDS011;11634;42.734;23.298;2023-04-25T08:49:45;10.40;;;9.00;;
22937;SDS011;11634;42.734;23.298;2023-04-25T08:52:12;9.45;;;8.40;;
22937;SDS011;11634;42.734;23.298;2023-04-25T08:54:41;10.02;;;8.05;;
22937;SDS011;11634;42.734;23.298;2023-04-25T08:57:10;9.05;;;7.22;;
22937;SDS011;11634;42.734;23.298;2023-04-25T08:59:37;10.23;;;8.73;;
22937;SDS011;11634;42.734;23.298;2023-04-25T09:02:05;8.63;;;7.72;;
22937;SDS011;11634;42.734;23.298;2023-04-25T09:04:31;7.00;;;6.25;;
22937;SDS011;11634;42.734;23.298;2023-04-25T09:06:59;6.60;;;6.00;;
22937;SDS011;11634;42.734;23.298;2023-04-25T09:09:25;6.45;;;5.55;;
22937;SDS011;11634;42.734;23.298;2023-04-25T09:11:51;9.05;;;6.70;;
22937;SDS011;11634;42.734;23.298;2023-04-25T09:14:20;7.63;;;6.82;;
22937;SDS011;11634;42.734;23.298;2023-04-25T09:17:02;9.15;;;7.07;;
22937;SDS011;11634;42.734;23.298;2023-04-25T09:20:06;9.18;;;7.13;;
22937;SDS011;11634;42.734;23.298;2023-04-25T09:22:34;8.77;;;7.90;;
22937;SDS011;11634;42.734;23.298;2023-04-25T09:25:02;7.18;;;6.50;;
22937;SDS011;11634;42.734;23.298;2023-04-25T09:27:28;6.68;;;5.95;;
22937;SDS011;11634;42.734;23.298;2023-04-25T09:30:15;4.47;;;4.00;;
22937;SDS011;11634;42.734;23.298;2023-04-25T09:33:04;4.45;;;4.05;;
22937;SDS011;11634;42.734;23.298;2023-04-25T09:35:32;4.05;;;3.30;;
22937;SDS011;11634;42.734;23.298;2023-04-25T09:38:01;5.50;;;2.75;;
22937;SDS011;11634;42.734;23.298;2023-04-25T09:40:47;2.95;;;2.75;;
22937;SDS011;11634;42.734;23.298;2023-04-25T09:43:26;2.95;;;2.30;;
22937;SDS011;11634;42.734;23.298;2023-04-25T09:45:53;2.42;;;2.22;;
22937;SDS011;11634;42.734;23.298;2023-04-25T09:48:24;2.65;;;2.13;;
22937;SDS011;11634;42.734;23.298;2023-04-25T09:51:06;4.07;;;2.05;;
22937;SDS011;11634;42.734;23.298;2023-04-25T09:53:38;1.90;;;1.80;;
22937;SDS011;11634;42.734;23.298;2023-04-25T09:56:40;3.53;;;2.00;;
22937;SDS011;11634;42.734;23.298;2023-04-25T09:59:07;1.60;;;1.40;;
22937;SDS011;11634;42.734;23.298;2023-04-25T10:01:36;2.10;;;1.83;;
22937;SDS011;11634;42.734;23.298;2023-04-25T10:04:20;1.95;;;1.40;;
22937;SDS011;11634;42.734;23.298;2023-04-25T10:06:58;1.88;;;1.50;;
22937;SDS011;11634;42.734;23.298;2023-04-25T10:09:26;2.03;;;1.70;;
22937;SDS011;11634;42.734;23.298;2023-04-25T10:11:56;1.60;;;1.42;;
22937;SDS011;11634;42.734;23.298;2023-04-25T10:14:23;1.88;;;1.38;;
22937;SDS011;11634;42.734;23.298;2023-04-25T10:16:50;2.92;;;1.55;;
22937;SDS011;11634;42.734;23.298;2023-04-25T10:19:19;4.18;;;1.45;;
22937;SDS011;11634;42.734;23.298;2023-04-25T10:22:29;3.05;;;1.90;;
22937;SDS011;11634;42.734;23.298;2023-04-25T10:24:41;3.47;;;1.55;;
22937;SDS011;11634;42.734;23.298;2023-04-25T10:27:08;3.80;;;1.58;;
22937;SDS011;11634;42.734;23.298;2023-04-25T10:29:35;1.25;;;1.15;;
22937;SDS011;11634;42.734;23.298;2023-04-25T10:32:00;2.20;;;1.30;;
22937;SDS011;11634;42.734;23.298;2023-04-25T10:34:40;2.28;;;0.98;;
22937;SDS011;11634;42.734;23.298;2023-04-25T10:37:10;3.92;;;1.10;;
22937;SDS011;11634;42.734;23.298;2023-04-25T10:39:41;2.17;;;1.00;;
22937;SDS011;11634;42.734;23.298;2023-04-25T10:42:07;1.90;;;1.10;;
22937;SDS011;11634;42.734;23.298;2023-04-25T10:44:33;4.85;;;1.00;;
22937;SDS011;11634;42.734;23.298;2023-04-25T10:47:00;2.45;;;1.60;;
22937;SDS011;11634;42.734;23.298;2023-04-25T10:49:34;3.60;;;1.65;;
22937;SDS011;11634;42.734;23.298;2023-04-25T10:52:12;3.65;;;1.45;;
22937;SDS011;11634;42.734;23.298;2023-04-25T10:54:56;2.17;;;1.23;;
22937;SDS011;11634;42.734;23.298;2023-04-25T10:57:41;1.63;;;1.42;;
22937;SDS011;11634;42.734;23.298;2023-04-25T11:03:09;2.58;;;1.27;;
22937;SDS011;11634;42.734;23.298;2023-04-25T11:05:35;2.83;;;1.45;;
22937;SDS011;11634;42.734;23.298;2023-04-25T11:08:02;1.70;;;0.93;;
22937;SDS011;11634;42.734;23.298;2023-04-25T11:10:32;1.48;;;0.88;;
22937;SDS011;11634;42.734;23.298;2023-04-25T11:13:00;0.90;;;0.90;;
22937;SDS011;11634;42.734;23.298;2023-04-25T11:15:26;0.93;;;0.82;;
22937;SDS011;11634;42.734;23.298;2023-04-25T11:17:52;2.45;;;1.05;;
22937;SDS011;11634;42.734;23.298;2023-04-25T11:20:19;3.10;;;0.93;;
22937;SDS011;11634;42.734;23.298;2023-04-25T11:22:45;1.80;;;0.70;;
22937;SDS011;11634;42.734;23.298;2023-04-25T11:25:12;4.25;;;0.93;;
22937;SDS011;11634;42.734;23.298;2023-04-25T11:27:49;2.40;;;1.00;;
22937;SDS011;11634;42.734;23.298;2023-04-25T11:30:22;1.42;;;0.82;;
22937;SDS011;11634;42.734;23.298;2023-04-25T11:32:50;1.35;;;0.75;;
22937;SDS011;11634;42.734;23.298;2023-04-25T11:35:17;3.80;;;1.00;;
22937;SDS011;11634;42.734;23.298;2023-04-25T11:37:43;1.48;;;0.90;;
22937;SDS011;11634;42.734;23.298;2023-04-25T11:40:12;2.22;;;0.90;;
22937;SDS011;11634;42.734;23.298;2023-04-25T11:42:44;2.17;;;1.10;;
22937;SDS011;11634;42.734;23.298;2023-04-25T11:45:11;1.40;;;0.95;;
22937;SDS011;11634;42.734;23.298;2023-04-25T11:47:37;1.20;;;1.00;;
22937;SDS011;11634;42.734;23.298;2023-04-25T11:50:05;3.85;;;1.02;;
22937;SDS011;11634;42.734;23.298;2023-04-25T11:52:39;2.17;;;1.00;;
22937;SDS011;11634;42.734;23.298;2023-04-25T11:55:07;3.05;;;1.05;;
22937;SDS011;11634;42.734;23.298;2023-04-25T11:57:38;1.90;;;1.00;;
22937;SDS011;11634;42.734;23.298;2023-04-25T12:00:18;1.33;;;0.60;;
22937;SDS011;11634;42.734;23.298;2023-04-25T12:02:46;0.88;;;0.40;;
22937;SDS011;11634;42.734;23.298;2023-04-25T12:05:14;0.60;;;0.50;;
22937;SDS011;11634;42.734;23.298;2023-04-25T12:07:43;3.95;;;0.90;;
22937;SDS011;11634;42.734;23.298;2023-04-25T12:10:13;2.85;;;0.80;;
22937;SDS011;11634;42.734;23.298;2023-04-25T12:12:44;1.00;;;0.50;;
22937;SDS011;11634;42.734;23.298;2023-04-25T12:17:38;6.70;;;1.30;;
22937;SDS011;11634;42.734;23.298;2023-04-25T12:20:08;10.32;;;2.13;;
22937;SDS011;11634;42.734;23.298;2023-04-25T12:22:35;1.77;;;1.08;;
22937;SDS011;11634;42.734;23.298;2023-04-25T12:25:02;1.73;;;0.70;;
22937;SDS011;11634;42.734;23.298;2023-04-25T12:27:30;2.53;;;0.98;;
22937;SDS011;11634;42.734;23.298;2023-04-25T12:29:57;3.90;;;1.48;;
22937;SDS011;11634;42.734;23.298;2023-04-25T12:32:23;2.63;;;0.90;;
22937;SDS011;11634;42.734;23.298;2023-04-25T12:34:50;1.92;;;0.90;;
22937;SDS011;11634;42.734;23.298;2023-04-25T12:37:15;0.50;;;0.50;;
22937;SDS011;11634;42.734;23.298;2023-04-25T12:39:41;2.72;;;0.95;;
22937;SDS011;11634;42.734;23.298;2023-04-25T12:42:07;2.20;;;0.80;;
22937;SDS011;11634;42.734;23.298;2023-04-25T12:44:38;1.63;;;1.05;;
22937;SDS011;11634;42.734;23.298;2023-04-25T12:47:05;2.20;;;0.98;;
22937;SDS011;11634;42.734;23.298;2023-04-25T12:49:30;3.28;;;1.35;;
22937;SDS011;11634;42.734;23.298;2023-04-25T12:51:56;3.25;;;1.23;;
22937;SDS011;11634;42.734;23.298;2023-04-25T12:54:22;1.85;;;1.45;;
22937;SDS011;11634;42.734;23.298;2023-04-25T12:56:48;2.10;;;1.70;;
22937;SDS011;11634;42.734;23.298;2023-04-25T12:59:15;1.40;;;1.30;;
22937;SDS011;11634;42.734;23.298;2023-04-25T13:01:41;2.53;;;1.50;;
22937;SDS011;11634;42.734;23.298;2023-04-25T13:04:06;4.72;;;1.88;;
22937;SDS011;11634;42.734;23.298;2023-04-25T13:06:32;1.45;;;1.25;;
22937;SDS011;11634;42.734;23.298;2023-04-25T13:08:57;3.65;;;1.50;;
22937;SDS011;11634;42.734;23.298;2023-04-25T13:11:23;2.75;;;1.80;;
22937;SDS011;11634;42.734;23.298;2023-04-25T13:13:49;2.70;;;1.73;;
22937;SDS011;11634;42.734;23.298;2023-04-25T13:16:14;2.67;;;1.67;;
22937;SDS011;11634;42.734;23.298;2023-04-25T13:18:40;2.40;;;1.55;;
22937;SDS011;11634;42.734;23.298;2023-04-25T13:21:06;1.98;;;1.73;;
22937;SDS011;11634;42.734;23.298;2023-04-25T13:23:31;2.78;;;1.40;;
22937;SDS011;11634;42.734;23.298;2023-04-25T13:25:57;7.88;;;4.35;;
22937;SDS011;11634;42.734;23.298;2023-04-25T13:28:27;6.18;;;5.55;;
22937;SDS011;11634;42.734;23.298;2023-04-25T13:30:53;5.18;;;3.97;;
22937;SDS011;11634;42.734;23.298;2023-04-25T13:33:21;4.05;;;3.58;;
22937;SDS011;11634;42.734;23.298;2023-04-25T13:35:47;4.70;;;4.10;;
22937;SDS011;11634;42.734;23.298;2023-04-25T13:38:19;3.25;;;2.95;;
22937;SDS011;11634;42.734;23.298;2023-04-25T13:40:46;4.40;;;3.22;;
22937;SDS011;11634;42.734;23.298;2023-04-25T13:43:12;4.70;;;3.70;;
22937;SDS011;11634;42.734;23.298;2023-04-25T13:45:37;4.75;;;3.17;;
22937;SDS011;11634;42.734;23.298;2023-04-25T13:48:03;6.05;;;4.20;;
22937;SDS011;11634;42.734;23.298;2023-04-25T13:50:32;7.93;;;3.75;;
22937;SDS011;11634;42.734;23.298;2023-04-25T13:52:57;4.10;;;2.88;;
22937;SDS011;11634;42.734;23.298;2023-04-25T13:55:23;8.10;;;3.75;;
22937;SDS011;11634;42.734;23.298;2023-04-25T13:57:49;6.90;;;3.85;;
22937;SDS011;11634;42.734;23.298;2023-04-25T14:00:15;6.05;;;4.13;;
22937;SDS011;11634;42.734;23.298;2023-04-25T14:02:41;5.57;;;4.43;;
22937;SDS011;11634;42.734;23.298;2023-04-25T14:05:09;8.20;;;4.88;;
22937;SDS011;11634;42.734;23.298;2023-04-25T14:07:35;5.88;;;4.10;;
22937;SDS011;11634;42.734;23.298;2023-04-25T14:10:01;6.40;;;3.53;;
22937;SDS011;11634;42.734;23.298;2023-04-25T14:12:27;4.75;;;3.33;;
22937;SDS011;11634;42.734;23.298;2023-04-25T14:15:04;3.70;;;2.38;;
22937;SDS011;11634;42.734;23.298;2023-04-25T14:17:36;4.13;;;2.60;;
22937;SDS011;11634;42.734;23.298;2023-04-25T14:20:05;6.03;;;3.47;;
22937;SDS011;11634;42.734;23.298;2023-04-25T14:22:37;6.93;;;5.18;;
22937;SDS011;11634;42.734;23.298;2023-04-25T14:25:09;4.95;;;3.80;;
22937;SDS011;11634;42.734;23.298;2023-04-25T14:27:35;5.07;;;3.42;;
22937;SDS011;11634;42.734;23.298;2023-04-25T14:30:01;3.90;;;2.88;;
22937;SDS011;11634;42.734;23.298;2023-04-25T14:32:26;3.13;;;2.38;;
22937;SDS011;11634;42.734;23.298;2023-04-25T14:34:52;2.25;;;1.63;;
22937;SDS011;11634;42.734;23.298;2023-04-25T14:37:17;2.30;;;1.40;;
22937;SDS011;11634;42.734;23.298;2023-04-25T14:39:43;2.10;;;1.67;;
22937;SDS011;11634;42.734;23.298;2023-04-25T14:42:09;7.15;;;2.40;;
22937;SDS011;11634;42.734;23.298;2023-04-25T14:44:34;4.82;;;2.00;;
22937;SDS011;11634;42.734;23.298;2023-04-25T14:47:00;5.22;;;3.08;;
22937;SDS011;11634;42.734;23.298;2023-04-25T14:49:26;7.88;;;4.13;;